• Join FlightAware (Why Join?)
  • Login
  • US Flag 
02:23PM EDT


 

Airport Tracker/Info


-or-


 

Live Flight TrackerFlight Track Log ✈ AWE1710 ✈ 17-Jun-2013 ✈ KCLT - KMCO

Flight Track Log - Related Links

Times and Time Zones

All times are in EDT time to prevent confusion due to time zone crossing. See the AWE1710 flight status page for this flight to view local times or setup timezone preferences in your user account.

Time Position Orientation Groundspeed Altitude Reporting Facility
EDT Latitude Longitude Course Direction KTS MPH feet Rate Location/Type
01:30PM 35.1928 -80.9356 165° South 173 199 1,600  Level Atlanta Center
01:31PM 35.1322 -80.9278 174° South 203 234 3,000 1,620 Climbing Atlanta Center
01:33PM 34.8718 -80.9686 175° South  Level Estimated
01:33PM 35.0589 -80.9153 172° South 260 299 5,300  Level Atlanta Center
01:33PM 35.0336 -80.9111 172° South 257 296 5,800 2,220 Climbing Atlanta Center
01:34PM 34.7578 -80.9750 180° South  Level Estimated
01:34PM 34.9772 -80.9081 177° South 261 300 7,800  Level Atlanta Center
01:35PM 34.6438 -80.9815 180° South  Level Estimated
01:35PM 34.9125 -80.9006 175° South 268 308 9,400  Level Atlanta Center
01:35PM 34.8853 -80.9014 181° South 282 325 9,700 1,560 Climbing Atlanta Center
01:36PM 34.5299 -80.9879 165° South  Level Estimated
01:37PM 34.7219 -80.8972 179° South 327 376 12,700  Level Jacksonville Center
01:38PM 34.6175 -80.8969 180° South 352 405 13,600 1,200 Climbing Jacksonville Center
01:39PM 34.5111 -80.8919 178° South 382 440 15,200 1,620 Climbing Jacksonville Center
01:40PM 34.4050 -80.9144 190° South 388 447 16,900 1,440 Climbing Jacksonville Center
01:41PM 34.2931 -80.9472 194° South 393 452 18,100 1,200 Climbing Jacksonville Center
01:42PM 34.1869 -80.9722 191° South 402 463 19,300 1,140 Climbing Jacksonville Center
01:43PM 34.0747 -80.9997 191° South 408 470 20,400 1,140 Climbing Jacksonville Center
01:44PM 33.9603 -81.0322 193° South 414 476 21,600 1,140 Climbing Jacksonville Center
01:45PM 33.8439 -81.0572 190° South 426 490 22,700 900 Climbing Jacksonville Center
01:46PM 33.7208 -81.0622 182° South 431 496 23,400 720 Climbing Jacksonville Center
01:47PM 33.5936 -81.0675 182° South 448 516 24,200 720 Climbing Jacksonville Center
01:48PM 33.4664 -81.0775 184° South 453 521 24,900 600 Climbing Jacksonville Center
01:49PM 33.3394 -81.0975 187° South 465 535 25,500 660 Climbing Jacksonville Center
01:50PM 33.2206 -81.1097 185° South 471 542 26,300 900 Climbing Jacksonville Center
01:51PM 33.0914 -81.1247 186° South 471 542 27,400 1,140 Climbing Jacksonville Center
01:52PM 32.9644 -81.1372 185° South 471 542 28,600 1,200 Climbing Jacksonville Center
01:53PM 32.8350 -81.1497 185° South 471 542 29,800 660 Climbing Jacksonville Center
01:54PM 32.7097 -81.1469 179° South 466 536 30,000 60 Climbing Jacksonville Center
01:55PM 32.5719 -81.1497 181° South 453 521 30,000  Level Jacksonville Center
01:56PM 32.4447 -81.1497 180° South 459 528 30,000  Level Jacksonville Center
01:57PM 32.3300 -81.1494 180° South 459 528 30,000  Level Jacksonville Center
01:58PM 32.2047 -81.1469 179° South 454 522 30,000  Level Jacksonville Center
01:59PM 32.0897 -81.1467 180° South 442 509 30,000  Level Jacksonville Center
02:00PM 31.9772 -81.1511 182° South 418 481 30,000  Level Jacksonville Center
02:01PM 31.8561 -81.1511 180° South 407 468 30,000  Level Jacksonville Center
02:02PM 31.7475 -81.1506 180° South 401 461 30,000  Level Jacksonville Center
02:03PM 31.6325 -81.1503 180° South 401 461 30,000  Level Jacksonville Center
02:04PM 31.5178 -81.1500 180° South 406 467 30,000  Level Jacksonville Center
02:05PM 31.4175 -81.1494 180° South 406 467 30,000  Level Jacksonville Center
02:06PM 31.3006 -81.1517 181° South 406 467 30,000  Level Jacksonville Center
02:07PM 31.1858 -81.1539 181° South 406 467 30,000  Level Jacksonville Center
02:08PM 31.0731 -81.1533 180° South 406 467 30,000  Level Jacksonville Center
02:09PM 30.9583 -81.1533 180° South 406 467 30,000  Level Jacksonville Center
02:10PM 30.8456 -81.1528 180° South 406 467 30,000  Level Jacksonville Center
02:11PM 30.7306 -81.1525 180° South 406 467 30,000  Level Jacksonville Center
02:12PM 30.6158 -81.1547 181° South 406 467 30,000  Level Jacksonville Center
02:13PM 30.5031 -81.1494 178° South 406 467 30,000 -180 Level Jacksonville Center
02:14PM 30.3881 -81.1467 179° South 406 467 29,700 -900 Descending Jacksonville Center
02:15PM 30.2669 -81.1442 179° South 406 467 28,200 -1,560 Descending Jacksonville Center
02:16PM 30.1583 -81.1414 179° South 401 461 26,600 -1,500 Descending Jacksonville Center
02:17PM 30.0542 -81.1383 179° South 391 450 25,300 -1,500 Descending Jacksonville Center
02:18PM 29.9539 -81.1353 178° South 380 437 23,700 -1,620 Descending Jacksonville Center
02:19PM 29.8578 -81.1322 178° South 360 414 22,100 -1,560 Descending Jacksonville Center
02:20PM 29.7636 -81.1317 180° South 348 400 20,600 -1,500 Descending Jacksonville Center
02:21PM 29.6719 -81.1286 178° South 342 394 19,100 -1,500 Descending Jacksonville Center
02:22PM 29.5861 -81.1253 178° South 330 380 17,600 -1,500 Descending Jacksonville Center
02:23PM 29.4964 -81.1244 180° South 325 374 16,100 -1,320 Descending Jacksonville Center
02:24PM 29.4128 -81.1189 177° South 319 367 15,000 -600 Descending Jacksonville Center
02:25PM 29.3314 -81.1156 178° South 306 352 15,000  Level Jacksonville Center
02:26PM 29.2558 -81.0861 161° South 281 323 15,000  Level Jacksonville Center
02:27PM 29.2881 -80.9997 67° East 176 203 15,000  Level Jacksonville Center
02:28PM 29.3736 -81.0028 358° North 160 184 15,000  Level Jacksonville Center
02:29PM 29.4592 -80.9989 North 225 259 15,000  Level Jacksonville Center
02:30PM 29.5406 -81.0044 357° North 266 306 15,000  Level Jacksonville Center
02:31PM 29.6019 -81.0508 327° Northwest 273 314 15,000  Level Jacksonville Center
02:32PM 29.5569 -81.1186 233° Southwest 168 193 15,000  Level Jacksonville Center
02:33PM 29.4733 -81.1178 180° South 196 226 15,000  Level Jacksonville Center
02:34PM 29.4061 -81.0786 153° Southeast 222 255 15,000  Level Jacksonville Center
02:35PM 29.3858 -80.9789 103° East 228 262 15,000  Level Jacksonville Center
02:36PM 29.3447 -80.8939 119° Southeast 265 305 15,000  Level Jacksonville Center
02:37PM 29.2789 -80.9475 215° Southwest 193 222 15,000  Level Jacksonville Center
02:38PM 29.2614 -81.0431 258° West 221 254 15,000 -120 Level Jacksonville Center
02:39PM 29.2253 -81.1294 244° Southwest 264 304 14,800 -600 Descending Jacksonville Center
02:40PM 29.1739 -81.2042 232° Southwest 289 333 13,800 -1,080 Descending Jacksonville Center
02:41PM 29.1142 -81.2597 219° Southwest 303 349 12,700 -960 Descending Jacksonville Center
02:42PM 29.0283 -81.2422 170° South 276 318 11,900 -900 Descending Jacksonville Center
02:43PM 28.9528 -81.2125 161° South 288 331 10,900 -1,320 Descending Jacksonville Center
02:44PM 28.8333 -81.1667 161° South 273 314 8,600 -1,200 Descending Orlando TRACON
02:45PM 28.7667 -81.2000 204° Southwest 245 282 7,800 -900 Descending Orlando TRACON
02:46PM 28.7167 -81.2333 210° Southwest 213 245 6,800 -1,380 Descending Orlando TRACON
02:47PM 28.6667 -81.2667 210° Southwest 206 237 5,100 -1,740 Descending Orlando TRACON
02:48PM 28.6167 -81.2833 196° South 200 230 3,300 -1,800 Descending Orlando TRACON